sensor_id;sensor_type;location;lat;lon;timestamp;pressure;altitude;pressure_sealevel;temperature;humidity
42847;BME280;28495;49.916;14.536;2023-06-10T00:05:28;96652.06;;;17.56;67.61
42847;BME280;28495;49.916;14.536;2023-06-10T00:10:50;96647.22;;;17.60;67.61
42847;BME280;28495;49.916;14.536;2023-06-10T00:16:11;96652.34;;;17.61;67.52
42847;BME280;28495;49.916;14.536;2023-06-10T00:21:34;96655.44;;;17.50;67.18
42847;BME280;28495;49.916;14.536;2023-06-10T00:27:00;96653.81;;;17.49;67.27
42847;BME280;28495;49.916;14.536;2023-06-10T00:32:21;96661.91;;;17.47;67.18
42847;BME280;28495;49.916;14.536;2023-06-10T00:37:42;96654.13;;;17.61;67.43
42847;BME280;28495;49.916;14.536;2023-06-10T00:43:03;96649.66;;;17.40;66.90
42847;BME280;28495;49.916;14.536;2023-06-10T00:48:24;96646.41;;;17.37;67.12
42847;BME280;28495;49.916;14.536;2023-06-10T00:53:45;96649.22;;;17.36;67.46
42847;BME280;28495;49.916;14.536;2023-06-10T00:59:06;96654.03;;;17.32;66.94
42847;BME280;28495;49.916;14.536;2023-06-10T01:04:27;96658.75;;;17.00;66.80
42847;BME280;28495;49.916;14.536;2023-06-10T01:10:03;96647.94;;;16.95;66.80
42847;BME280;28495;49.916;14.536;2023-06-10T01:15:25;96652.25;;;16.88;66.78
42847;BME280;28495;49.916;14.536;2023-06-10T01:20:46;96651.72;;;16.77;66.88
42847;BME280;28495;49.916;14.536;2023-06-10T01:26:11;96658.75;;;16.70;67.06
42847;BME280;28495;49.916;14.536;2023-06-10T01:31:51;96664.38;;;16.67;66.93
42847;BME280;28495;49.916;14.536;2023-06-10T01:37:19;96665.81;;;16.70;66.79
42847;BME280;28495;49.916;14.536;2023-06-10T01:42:42;96666.91;;;16.75;67.04
42847;BME280;28495;49.916;14.536;2023-06-10T01:48:03;96672.72;;;16.71;66.58
42847;BME280;28495;49.916;14.536;2023-06-10T01:53:24;96674.44;;;16.64;66.53
42847;BME280;28495;49.916;14.536;2023-06-10T01:58:46;96675.97;;;16.58;66.62
42847;BME280;28495;49.916;14.536;2023-06-10T02:04:07;96679.44;;;16.58;66.57
42847;BME280;28495;49.916;14.536;2023-06-10T02:09:29;96680.88;;;16.61;66.74
42847;BME280;28495;49.916;14.536;2023-06-10T02:14:50;96681.97;;;16.52;66.70
42847;BME280;28495;49.916;14.536;2023-06-10T02:20:11;96689.31;;;16.56;66.79
42847;BME280;28495;49.916;14.536;2023-06-10T02:25:32;96682.59;;;16.69;66.71
42847;BME280;28495;49.916;14.536;2023-06-10T02:30:53;96679.53;;;16.65;66.28
42847;BME280;28495;49.916;14.536;2023-06-10T02:36:14;96685.03;;;16.55;66.66
42847;BME280;28495;49.916;14.536;2023-06-10T02:41:37;96682.22;;;16.42;66.93
42847;BME280;28495;49.916;14.536;2023-06-10T02:46:59;96678.13;;;16.39;66.77
42847;BME280;28495;49.916;14.536;2023-06-10T02:52:21;96679.84;;;16.32;66.74
42847;BME280;28495;49.916;14.536;2023-06-10T02:57:43;96682.28;;;16.34;67.15
42847;BME280;28495;49.916;14.536;2023-06-10T03:03:04;96688.63;;;16.24;66.80
42847;BME280;28495;49.916;14.536;2023-06-10T03:08:35;96696.75;;;16.14;67.23
42847;BME280;28495;49.916;14.536;2023-06-10T03:14:00;96691.84;;;16.11;67.44
42847;BME280;28495;49.916;14.536;2023-06-10T03:19:22;96692.78;;;16.19;67.23
42847;BME280;28495;49.916;14.536;2023-06-10T03:24:46;96694.84;;;16.08;67.13
42847;BME280;28495;49.916;14.536;2023-06-10T03:30:12;96694.03;;;16.08;67.27
42847;BME280;28495;49.916;14.536;2023-06-10T03:35:35;96703.59;;;16.24;67.40
42847;BME280;28495;49.916;14.536;2023-06-10T03:40:58;96706.88;;;16.26;67.22
42847;BME280;28495;49.916;14.536;2023-06-10T03:46:19;96706.94;;;16.18;66.92
42847;BME280;28495;49.916;14.536;2023-06-10T03:51:40;96702.66;;;16.17;67.22
42847;BME280;28495;49.916;14.536;2023-06-10T03:57:01;96714.28;;;16.22;67.24
42847;BME280;28495;49.916;14.536;2023-06-10T04:02:24;96714.06;;;16.09;66.95
42847;BME280;28495;49.916;14.536;2023-06-10T04:07:46;96715.38;;;16.13;67.15
42847;BME280;28495;49.916;14.536;2023-06-10T04:13:09;96726.59;;;16.07;67.57
42847;BME280;28495;49.916;14.536;2023-06-10T04:18:38;96720.09;;;16.18;68.19
42847;BME280;28495;49.916;14.536;2023-06-10T04:24:01;96722.13;;;16.30;68.17
42847;BME280;28495;49.916;14.536;2023-06-10T04:29:22;96718.19;;;16.50;68.44
42847;BME280;28495;49.916;14.536;2023-06-10T04:34:47;96715.38;;;16.66;68.33
42847;BME280;28495;49.916;14.536;2023-06-10T04:40:09;96719.09;;;16.72;68.35
42847;BME280;28495;49.916;14.536;2023-06-10T04:45:30;96720.13;;;16.86;68.30
42847;BME280;28495;49.916;14.536;2023-06-10T04:50:53;96720.38;;;16.91;68.45
42847;BME280;28495;49.916;14.536;2023-06-10T04:56:14;96721.75;;;16.87;68.47
42847;BME280;28495;49.916;14.536;2023-06-10T05:01:36;96721.84;;;16.94;68.82
42847;BME280;28495;49.916;14.536;2023-06-10T05:06:57;96722.66;;;16.94;68.66
42847;BME280;28495;49.916;14.536;2023-06-10T05:12:18;96724.34;;;16.95;68.88
42847;BME280;28495;49.916;14.536;2023-06-10T05:17:39;96730.50;;;17.02;69.30
42847;BME280;28495;49.916;14.536;2023-06-10T05:23:00;96734.75;;;17.03;68.83
42847;BME280;28495;49.916;14.536;2023-06-10T05:28:21;96741.16;;;17.09;69.08
42847;BME280;28495;49.916;14.536;2023-06-10T05:33:41;96740.84;;;17.19;69.21
42847;BME280;28495;49.916;14.536;2023-06-10T05:39:03;96744.19;;;17.28;69.11
42847;BME280;28495;49.916;14.536;2023-06-10T05:44:24;96744.84;;;17.30;69.16
42847;BME280;28495;49.916;14.536;2023-06-10T05:49:45;96754.38;;;17.46;69.50
42847;BME280;28495;49.916;14.536;2023-06-10T05:55:09;96760.16;;;17.56;69.37
42847;BME280;28495;49.916;14.536;2023-06-10T06:00:31;96757.06;;;17.67;69.52
42847;BME280;28495;49.916;14.536;2023-06-10T06:05:51;96761.59;;;17.95;69.57
42847;BME280;28495;49.916;14.536;2023-06-10T06:11:12;96758.59;;;18.13;69.29
42847;BME280;28495;49.916;14.536;2023-06-10T06:16:34;96768.06;;;18.08;69.11
42847;BME280;28495;49.916;14.536;2023-06-10T06:21:55;96772.78;;;18.12;69.43
42847;BME280;28495;49.916;14.536;2023-06-10T06:27:16;96770.44;;;18.24;69.37
42847;BME280;28495;49.916;14.536;2023-06-10T06:32:37;96775.47;;;18.41;69.84
42847;BME280;28495;49.916;14.536;2023-06-10T06:37:58;96771.22;;;18.68;69.82
42847;BME280;28495;49.916;14.536;2023-06-10T06:43:22;96784.41;;;18.90;69.27
42847;BME280;28495;49.916;14.536;2023-06-10T06:48:56;96776.50;;;19.25;69.01
42847;BME280;28495;49.916;14.536;2023-06-10T06:54:17;96776.34;;;19.33;68.51
42847;BME280;28495;49.916;14.536;2023-06-10T06:59:38;96783.72;;;19.10;68.11
42847;BME280;28495;49.916;14.536;2023-06-10T07:04:59;96790.66;;;19.11;68.76
42847;BME280;28495;49.916;14.536;2023-06-10T07:10:29;96800.16;;;19.05;68.24
42847;BME280;28495;49.916;14.536;2023-06-10T07:15:50;96794.84;;;18.98;68.57
42847;BME280;28495;49.916;14.536;2023-06-10T07:21:11;96806.13;;;18.92;68.33
42847;BME280;28495;49.916;14.536;2023-06-10T07:26:32;96813.19;;;19.07;68.64
42847;BME280;28495;49.916;14.536;2023-06-10T07:31:52;96810.38;;;19.08;68.63
42847;BME280;28495;49.916;14.536;2023-06-10T07:37:14;96816.44;;;19.09;68.45
42847;BME280;28495;49.916;14.536;2023-06-10T07:42:35;96826.28;;;18.93;68.51
42847;BME280;28495;49.916;14.536;2023-06-10T07:47:57;96833.56;;;18.91;68.52
42847;BME280;28495;49.916;14.536;2023-06-10T07:53:18;96827.00;;;18.80;68.36
42847;BME280;28495;49.916;14.536;2023-06-10T07:58:39;96831.84;;;18.77;68.44
42847;BME280;28495;49.916;14.536;2023-06-10T08:04:00;96825.13;;;18.74;68.70
42847;BME280;28495;49.916;14.536;2023-06-10T08:09:21;96830.28;;;18.82;68.42
42847;BME280;28495;49.916;14.536;2023-06-10T08:14:43;96837.00;;;18.85;68.70
42847;BME280;28495;49.916;14.536;2023-06-10T08:20:05;96838.69;;;18.93;68.56
42847;BME280;28495;49.916;14.536;2023-06-10T08:25:28;96843.19;;;18.70;68.25
42847;BME280;28495;49.916;14.536;2023-06-10T08:30:48;96854.25;;;18.59;68.42
42847;BME280;28495;49.916;14.536;2023-06-10T08:36:10;96850.22;;;18.63;68.85
42847;BME280;28495;49.916;14.536;2023-06-10T08:41:35;96848.63;;;18.69;68.75
42847;BME280;28495;49.916;14.536;2023-06-10T08:46:59;96852.69;;;18.65;68.68
42847;BME280;28495;49.916;14.536;2023-06-10T08:52:21;96855.50;;;18.63;69.05
42847;BME280;28495;49.916;14.536;2023-06-10T08:57:42;96854.06;;;18.61;68.76
42847;BME280;28495;49.916;14.536;2023-06-10T09:03:05;96858.53;;;18.60;68.76
42847;BME280;28495;49.916;14.536;2023-06-10T09:08:30;96853.75;;;18.70;68.96
42847;BME280;28495;49.916;14.536;2023-06-10T09:13:51;96851.16;;;18.77;68.66
42847;BME280;28495;49.916;14.536;2023-06-10T09:19:14;96852.69;;;18.93;69.24
42847;BME280;28495;49.916;14.536;2023-06-10T09:24:36;96867.75;;;18.93;69.16
42847;BME280;28495;49.916;14.536;2023-06-10T09:29:57;96869.84;;;18.97;68.52
42847;BME280;28495;49.916;14.536;2023-06-10T09:35:18;96873.22;;;18.91;68.51
42847;BME280;28495;49.916;14.536;2023-06-10T09:40:50;96868.22;;;18.96;69.19
42847;BME280;28495;49.916;14.536;2023-06-10T09:46:19;96862.81;;;19.04;69.12
42847;BME280;28495;49.916;14.536;2023-06-10T09:51:54;96859.25;;;19.19;69.34
42847;BME280;28495;49.916;14.536;2023-06-10T09:57:16;96860.28;;;19.25;69.46
42847;BME280;28495;49.916;14.536;2023-06-10T10:02:53;96867.63;;;19.29;68.97
42847;BME280;28495;49.916;14.536;2023-06-10T10:08:15;96863.59;;;19.33;68.77
42847;BME280;28495;49.916;14.536;2023-06-10T10:13:37;96858.34;;;19.40;68.59
42847;BME280;28495;49.916;14.536;2023-06-10T10:19:11;96858.00;;;19.50;68.54
42847;BME280;28495;49.916;14.536;2023-06-10T10:24:38;96858.16;;;19.77;69.04
42847;BME280;28495;49.916;14.536;2023-06-10T10:30:03;96845.66;;;20.06;69.05
42847;BME280;28495;49.916;14.536;2023-06-10T10:35:30;96850.03;;;20.47;69.09
42847;BME280;28495;49.916;14.536;2023-06-10T10:40:56;96846.38;;;20.62;68.00
42847;BME280;28495;49.916;14.536;2023-06-10T10:46:20;96841.31;;;20.74;68.38
42847;BME280;28495;49.916;14.536;2023-06-10T10:51:55;96838.66;;;20.67;67.82
42847;BME280;28495;49.916;14.536;2023-06-10T10:57:23;96845.78;;;20.73;67.68
42847;BME280;28495;49.916;14.536;2023-06-10T11:02:47;96845.22;;;20.84;67.94
42847;BME280;28495;49.916;14.536;2023-06-10T11:08:11;96838.91;;;20.85;67.74
42847;BME280;28495;49.916;14.536;2023-06-10T11:13:32;96830.72;;;20.94;67.52
42847;BME280;28495;49.916;14.536;2023-06-10T11:18:54;96807.88;;;21.06;67.49
42847;BME280;28495;49.916;14.536;2023-06-10T11:24:16;96815.41;;;21.16;67.37
42847;BME280;28495;49.916;14.536;2023-06-10T11:29:37;96813.16;;;21.20;66.86
42847;BME280;28495;49.916;14.536;2023-06-10T11:34:58;96808.06;;;21.18;66.28
42847;BME280;28495;49.916;14.536;2023-06-10T11:40:20;96802.72;;;21.38;66.57
42847;BME280;28495;49.916;14.536;2023-06-10T11:45:41;96799.66;;;21.41;66.11
42847;BME280;28495;49.916;14.536;2023-06-10T11:51:08;96796.63;;;21.11;65.42
42847;BME280;28495;49.916;14.536;2023-06-10T11:56:31;96814.22;;;20.78;65.69
42847;BME280;28495;49.916;14.536;2023-06-10T12:01:52;96803.00;;;20.90;66.41
42847;BME280;28495;49.916;14.536;2023-06-10T12:07:19;96802.59;;;20.86;66.33
42847;BME280;28495;49.916;14.536;2023-06-10T12:12:41;96799.94;;;20.86;66.23
42847;BME280;28495;49.916;14.536;2023-06-10T12:18:03;96798.53;;;20.90;66.07
42847;BME280;28495;49.916;14.536;2023-06-10T12:23:27;96801.19;;;20.83;65.99
42847;BME280;28495;49.916;14.536;2023-06-10T12:28:50;96787.69;;;21.05;66.96
42847;BME280;28495;49.916;14.536;2023-06-10T12:34:11;96791.53;;;21.23;66.65
42847;BME280;28495;49.916;14.536;2023-06-10T12:39:33;96783.53;;;21.36;66.68
42847;BME280;28495;49.916;14.536;2023-06-10T12:44:56;96777.00;;;21.45;66.02
42847;BME280;28495;49.916;14.536;2023-06-10T12:50:21;96767.75;;;21.55;66.18
42847;BME280;28495;49.916;14.536;2023-06-10T12:55:43;96766.63;;;21.83;66.17
42847;BME280;28495;49.916;14.536;2023-06-10T13:01:05;96765.22;;;22.19;66.85
42847;BME280;28495;49.916;14.536;2023-06-10T13:06:26;96776.69;;;22.13;65.37
42847;BME280;28495;49.916;14.536;2023-06-10T13:11:47;96770.31;;;21.82;64.85
42847;BME280;28495;49.916;14.536;2023-06-10T13:17:10;96759.72;;;21.75;64.98
42847;BME280;28495;49.916;14.536;2023-06-10T13:22:32;96760.34;;;21.77;65.03
42847;BME280;28495;49.916;14.536;2023-06-10T13:27:53;96745.91;;;21.66;64.67
42847;BME280;28495;49.916;14.536;2023-06-10T13:33:15;96754.66;;;21.73;64.56
42847;BME280;28495;49.916;14.536;2023-06-10T13:38:36;96751.72;;;21.82;64.55
42847;BME280;28495;49.916;14.536;2023-06-10T13:43:59;96744.69;;;22.01;64.34
42847;BME280;28495;49.916;14.536;2023-06-10T13:49:21;96748.91;;;22.15;63.26
42847;BME280;28495;49.916;14.536;2023-06-10T13:54:42;96746.34;;;22.27;63.13
42847;BME280;28495;49.916;14.536;2023-06-10T14:00:03;96749.00;;;22.27;62.64
42847;BME280;28495;49.916;14.536;2023-06-10T14:05:24;96747.78;;;22.30;62.46
42847;BME280;28495;49.916;14.536;2023-06-10T14:10:47;96742.16;;;22.45;61.97
42847;BME280;28495;49.916;14.536;2023-06-10T14:16:09;96750.59;;;22.35;61.29
42847;BME280;28495;49.916;14.536;2023-06-10T14:21:29;96752.72;;;22.19;60.99
42847;BME280;28495;49.916;14.536;2023-06-10T14:26:50;96776.69;;;22.13;61.31
42847;BME280;28495;49.916;14.536;2023-06-10T14:32:11;96761.66;;;22.00;60.84
42847;BME280;28495;49.916;14.536;2023-06-10T14:37:32;96763.34;;;21.87;60.62
42847;BME280;28495;49.916;14.536;2023-06-10T14:42:53;96755.69;;;21.72;60.46
42847;BME280;28495;49.916;14.536;2023-06-10T14:48:14;96761.22;;;21.64;60.53
42847;BME280;28495;49.916;14.536;2023-06-10T14:53:35;96765.72;;;21.57;60.36
42847;BME280;28495;49.916;14.536;2023-06-10T14:58:56;96762.06;;;21.51;60.47
42847;BME280;28495;49.916;14.536;2023-06-10T15:04:17;96773.09;;;21.48;60.52
42847;BME280;28495;49.916;14.536;2023-06-10T15:09:42;96769.81;;;21.46;60.73
42847;BME280;28495;49.916;14.536;2023-06-10T15:15:03;96770.66;;;21.46;60.68
42847;BME280;28495;49.916;14.536;2023-06-10T15:20:24;96776.34;;;21.50;60.67
42847;BME280;28495;49.916;14.536;2023-06-10T15:25:45;96758.78;;;21.62;60.30
42847;BME280;28495;49.916;14.536;2023-06-10T15:31:07;96762.16;;;21.83;60.48
42847;BME280;28495;49.916;14.536;2023-06-10T15:36:28;96754.88;;;22.04;59.80
42847;BME280;28495;49.916;14.536;2023-06-10T15:41:50;96754.00;;;22.17;59.68
42847;BME280;28495;49.916;14.536;2023-06-10T15:47:11;96748.84;;;22.22;59.61
42847;BME280;28495;49.916;14.536;2023-06-10T15:52:31;96759.63;;;22.27;59.56
42847;BME280;28495;49.916;14.536;2023-06-10T15:57:52;96760.03;;;22.31;59.20
42847;BME280;28495;49.916;14.536;2023-06-10T16:03:13;96761.25;;;22.28;57.60
42847;BME280;28495;49.916;14.536;2023-06-10T16:08:34;96775.63;;;22.20;57.04
42847;BME280;28495;49.916;14.536;2023-06-10T16:13:55;96765.22;;;22.19;56.64
42847;BME280;28495;49.916;14.536;2023-06-10T16:19:16;96787.94;;;22.08;56.32
42847;BME280;28495;49.916;14.536;2023-06-10T16:24:38;96788.97;;;22.07;56.48
42847;BME280;28495;49.916;14.536;2023-06-10T16:29:59;96796.94;;;22.07;56.53
42847;BME280;28495;49.916;14.536;2023-06-10T16:35:19;96798.16;;;22.11;56.75
42847;BME280;28495;49.916;14.536;2023-06-10T16:40:40;96798.31;;;22.16;56.68
42847;BME280;28495;49.916;14.536;2023-06-10T16:46:01;96811.00;;;22.14;56.70
42847;BME280;28495;49.916;14.536;2023-06-10T16:51:22;96810.59;;;22.11;57.19
42847;BME280;28495;49.916;14.536;2023-06-10T16:56:43;96810.88;;;22.02;57.18
42847;BME280;28495;49.916;14.536;2023-06-10T17:02:05;96814.81;;;21.86;57.14
42847;BME280;28495;49.916;14.536;2023-06-10T17:07:28;96816.06;;;21.84;57.67
42847;BME280;28495;49.916;14.536;2023-06-10T17:12:50;96823.38;;;21.88;57.46
42847;BME280;28495;49.916;14.536;2023-06-10T17:18:11;96823.41;;;21.82;57.69
42847;BME280;28495;49.916;14.536;2023-06-10T17:23:32;96825.44;;;21.80;57.93
42847;BME280;28495;49.916;14.536;2023-06-10T17:28:53;96837.09;;;21.78;57.90
42847;BME280;28495;49.916;14.536;2023-06-10T17:34:14;96842.44;;;21.72;58.38
42847;BME280;28495;49.916;14.536;2023-06-10T17:39:35;96844.06;;;21.73;58.57
42847;BME280;28495;49.916;14.536;2023-06-10T17:44:56;96847.97;;;21.70;58.72
42847;BME280;28495;49.916;14.536;2023-06-10T17:50:17;96850.22;;;21.67;59.15
42847;BME280;28495;49.916;14.536;2023-06-10T17:55:39;96850.25;;;21.60;58.98
42847;BME280;28495;49.916;14.536;2023-06-10T18:01:00;96859.41;;;21.51;59.51
42847;BME280;28495;49.916;14.536;2023-06-10T18:06:22;96858.00;;;21.41;59.43
42847;BME280;28495;49.916;14.536;2023-06-10T18:11:42;96865.56;;;21.38;59.91
42847;BME280;28495;49.916;14.536;2023-06-10T18:17:03;96861.91;;;21.32;59.86
42847;BME280;28495;49.916;14.536;2023-06-10T18:22:24;96872.34;;;21.07;59.75
42847;BME280;28495;49.916;14.536;2023-06-10T18:27:46;96876.63;;;21.01;60.16
42847;BME280;28495;49.916;14.536;2023-06-10T18:33:07;96884.97;;;20.91;60.17
42847;BME280;28495;49.916;14.536;2023-06-10T18:38:28;96876.81;;;20.79;60.13
42847;BME280;28495;49.916;14.536;2023-06-10T18:43:49;96888.38;;;20.65;60.60
42847;BME280;28495;49.916;14.536;2023-06-10T18:49:10;96888.34;;;20.51;60.56
42847;BME280;28495;49.916;14.536;2023-06-10T18:54:30;96901.19;;;20.41;60.58
42847;BME280;28495;49.916;14.536;2023-06-10T18:59:51;96902.19;;;20.40;60.89
42847;BME280;28495;49.916;14.536;2023-06-10T19:05:12;96908.28;;;20.34;60.68
42847;BME280;28495;49.916;14.536;2023-06-10T19:10:34;96916.81;;;20.29;60.67
42847;BME280;28495;49.916;14.536;2023-06-10T19:15:55;96913.28;;;20.08;60.74
42847;BME280;28495;49.916;14.536;2023-06-10T19:21:17;96922.31;;;19.86;60.73
42847;BME280;28495;49.916;14.536;2023-06-10T19:26:38;96927.94;;;19.76;60.87
42847;BME280;28495;49.916;14.536;2023-06-10T19:32:02;96941.94;;;19.70;61.14
42847;BME280;28495;49.916;14.536;2023-06-10T19:37:23;96957.34;;;19.59;61.37
42847;BME280;28495;49.916;14.536;2023-06-10T19:42:44;96960.28;;;19.43;61.37
42847;BME280;28495;49.916;14.536;2023-06-10T19:48:05;96961.38;;;19.27;61.37
42847;BME280;28495;49.916;14.536;2023-06-10T19:53:31;96967.16;;;19.15;61.29
42847;BME280;28495;49.916;14.536;2023-06-10T19:58:52;96964.09;;;19.12;61.66
42847;BME280;28495;49.916;14.536;2023-06-10T20:04:12;96958.31;;;19.01;61.46
42847;BME280;28495;49.916;14.536;2023-06-10T20:09:33;96955.53;;;18.88;61.71
42847;BME280;28495;49.916;14.536;2023-06-10T20:14:56;96949.16;;;18.82;61.94
42847;BME280;28495;49.916;14.536;2023-06-10T20:20:16;96954.88;;;18.86;61.95
42847;BME280;28495;49.916;14.536;2023-06-10T20:25:37;96954.63;;;18.81;61.76
42847;BME280;28495;49.916;14.536;2023-06-10T20:31:00;96950.41;;;18.65;61.77
42847;BME280;28495;49.916;14.536;2023-06-10T20:36:21;96942.94;;;18.53;61.94
42847;BME280;28495;49.916;14.536;2023-06-10T20:41:42;96935.59;;;18.49;62.02
42847;BME280;28495;49.916;14.536;2023-06-10T20:47:04;96941.06;;;18.47;61.99
42847;BME280;28495;49.916;14.536;2023-06-10T20:52:24;96945.06;;;18.21;61.75
42847;BME280;28495;49.916;14.536;2023-06-10T20:57:46;96942.13;;;18.16;61.96
42847;BME280;28495;49.916;14.536;2023-06-10T21:03:06;96932.22;;;18.18;62.00
42847;BME280;28495;49.916;14.536;2023-06-10T21:08:28;96950.69;;;18.18;62.16
42847;BME280;28495;49.916;14.536;2023-06-10T21:13:49;96953.50;;;18.17;62.00
42847;BME280;28495;49.916;14.536;2023-06-10T21:19:10;96948.78;;;18.12;61.79
42847;BME280;28495;49.916;14.536;2023-06-10T21:24:31;96948.69;;;18.05;61.69
42847;BME280;28495;49.916;14.536;2023-06-10T21:29:52;96953.78;;;17.77;61.78
42847;BME280;28495;49.916;14.536;2023-06-10T21:35:13;96959.47;;;17.50;61.92
42847;BME280;28495;49.916;14.536;2023-06-10T21:40:34;96958.63;;;17.50;62.16
42847;BME280;28495;49.916;14.536;2023-06-10T21:45:55;96954.91;;;17.44;62.13
42847;BME280;28495;49.916;14.536;2023-06-10T21:51:17;96950.81;;;17.42;61.90
42847;BME280;28495;49.916;14.536;2023-06-10T21:56:38;96955.13;;;17.19;61.89
42847;BME280;28495;49.916;14.536;2023-06-10T22:01:59;96958.19;;;17.08;62.12
42847;BME280;28495;49.916;14.536;2023-06-10T22:07:20;96962.34;;;17.02;62.42
42847;BME280;28495;49.916;14.536;2023-06-10T22:12:41;96957.59;;;16.98;62.40
42847;BME280;28495;49.916;14.536;2023-06-10T22:18:04;96957.19;;;16.86;62.28
42847;BME280;28495;49.916;14.536;2023-06-10T22:23:26;96958.63;;;16.88;62.61
42847;BME280;28495;49.916;14.536;2023-06-10T22:28:47;96961.94;;;16.82;62.42
42847;BME280;28495;49.916;14.536;2023-06-10T22:34:07;96957.09;;;16.71;62.44
42847;BME280;28495;49.916;14.536;2023-06-10T22:39:28;96955.28;;;16.71;62.54
42847;BME280;28495;49.916;14.536;2023-06-10T22:44:49;96958.97;;;16.85;62.07
42847;BME280;28495;49.916;14.536;2023-06-10T22:50:10;96956.59;;;16.99;61.62
42847;BME280;28495;49.916;14.536;2023-06-10T22:55:31;96953.84;;;17.15;60.96
42847;BME280;28495;49.916;14.536;2023-06-10T23:00:53;96944.16;;;17.31;60.18
42847;BME280;28495;49.916;14.536;2023-06-10T23:06:13;96948.19;;;17.42;59.53
42847;BME280;28495;49.916;14.536;2023-06-10T23:11:36;96944.00;;;17.47;59.29
42847;BME280;28495;49.916;14.536;2023-06-10T23:16:57;96948.09;;;17.50;58.89
42847;BME280;28495;49.916;14.536;2023-06-10T23:22:18;96946.66;;;17.47;58.59
42847;BME280;28495;49.916;14.536;2023-06-10T23:27:39;96941.91;;;17.43;58.52
42847;BME280;28495;49.916;14.536;2023-06-10T23:33:00;96957.53;;;17.29;58.64
42847;BME280;28495;49.916;14.536;2023-06-10T23:38:21;96947.69;;;17.23;58.61
42847;BME280;28495;49.916;14.536;2023-06-10T23:43:42;96960.66;;;17.25;58.33
42847;BME280;28495;49.916;14.536;2023-06-10T23:49:03;96951.28;;;17.07;58.30
42847;BME280;28495;49.916;14.536;2023-06-10T23:54:25;96960.09;;;16.91;58.83
42847;BME280;28495;49.916;14.536;2023-06-10T23:59:46;96959.84;;;16.77;58.69
